Marysville, WA (98271)

10:23 PM PDT on September 04, 2015 (GMT -0700)
Kruse Junction | | Change Station
CLOSE
Current Station
Personal Weather Station
Location: North Marysville, WA
Elevation: 85 ft
Nearby Weather Stations

Elev 85 ft 48.11 °N, 122.17 °W | Updated 9 minutes ago

Partly Cloudy
Partly Cloudy
49.8 °F
Feels Like 50 °F
N
0.0
Wind Variable Wind from North
Gusts 0.0 mph

Today
High -- | Low -- °F
--% Chance of Precip.
Yesterday
High -- | Low -- °F
Precip. -- in
6:30 AM 7:44 PM
Waning Gibbous, 52% visible
Pressure 30.02 in
Visibility 1.2 miles
Clouds Scattered Clouds 200 ft
Windchill 50 °F
Dew Point 48 °F
Humidity 94%
Rainfall Not available.
Snow Depth Not available.
UV 0 out of 12
Pollen 2.50 out of 12
Air Quality Not available.
Flu Activity Not available.
METAR KAWO 050515Z 00000KT 1 1/4SM SCT002 09/07 A3002 RMK AO1
Pressure 30.02 in
Visibility 1.2 miles
Clouds Scattered Clouds 200 ft
Windchill 50 °F
Dew Point 48 °F
Humidity 94%
Rainfall Not available.
Snow Depth Not available.
UV 0 out of 12
Pollen 2.50 out of 12
Air Quality Not available.
Flu Activity Not available.
METAR KAWO 050515Z 00000KT 1 1/4SM SCT002 09/07 A3002 RMK AO1

10-Day Weather Forecast

×

Almanac

Astronomy

Sep. 04, 2015 Rise Set
Actual Time
Civil Twilight
Nautical Twilight
Astronomical Twilight
Moon
Length of Visible Light
Length of Day
Tomorrow will be .
, % of the Moon is Illuminated

Today's Extremes

State Highs State Lows

Community

WunderPhotos

Upload Photos

1,852,427 photos uploaded!

WunderBlogs® & News

Nearby

Air Quality

  Air Quality AQ Index Pollutant
Not available.

Snow Depth

Station Depth Elevation

Earthquake Activity

City Distance Mag. Time & Date
Minimum magnitude displayed is 2.5.

Coastal Water Temperatures

Place Temperature

Stations

Nearby Weather Stations

Station Location Temp. Windchill Dew Point Humidity Wind Precip. Elev Updated Type